sensor_id;sensor_type;location;lat;lon;timestamp;temperature;humidity
12720;DHT22;6424;48.520;11.228;2022-09-21T00:01:22;5.80;99.90
12720;DHT22;6424;48.520;11.228;2022-09-21T00:04:03;5.80;99.90
12720;DHT22;6424;48.520;11.228;2022-09-21T00:06:44;5.70;99.90
12720;DHT22;6424;48.520;11.228;2022-09-21T00:09:26;5.70;99.90
12720;DHT22;6424;48.520;11.228;2022-09-21T00:11:52;5.70;99.90
12720;DHT22;6424;48.520;11.228;2022-09-21T00:14:33;5.60;99.90
12720;DHT22;6424;48.520;11.228;2022-09-21T00:17:14;5.60;99.90
12720;DHT22;6424;48.520;11.228;2022-09-21T00:19:55;5.60;99.90
12720;DHT22;6424;48.520;11.228;2022-09-21T00:22:36;5.60;99.90
12720;DHT22;6424;48.520;11.228;2022-09-21T00:25:19;5.50;99.90
12720;DHT22;6424;48.520;11.228;2022-09-21T00:28:00;5.50;99.90
12720;DHT22;6424;48.520;11.228;2022-09-21T00:30:41;5.50;99.90
12720;DHT22;6424;48.520;11.228;2022-09-21T00:33:07;5.50;99.90
12720;DHT22;6424;48.520;11.228;2022-09-21T00:35:47;5.50;99.90
12720;DHT22;6424;48.520;11.228;2022-09-21T00:38:28;5.40;99.90
12720;DHT22;6424;48.520;11.228;2022-09-21T00:41:11;5.40;99.90
12720;DHT22;6424;48.520;11.228;2022-09-21T00:47:16;5.40;99.90
12720;DHT22;6424;48.520;11.228;2022-09-21T00:50:01;5.40;99.90
12720;DHT22;6424;48.520;11.228;2022-09-21T00:52:45;5.40;99.90
12720;DHT22;6424;48.520;11.228;2022-09-21T00:55:33;5.30;99.90
12720;DHT22;6424;48.520;11.228;2022-09-21T00:58:20;5.30;99.90
12720;DHT22;6424;48.520;11.228;2022-09-21T01:01:03;5.30;99.90
12720;DHT22;6424;48.520;11.228;2022-09-21T01:03:49;5.30;99.90
12720;DHT22;6424;48.520;11.228;2022-09-21T01:06:31;5.30;99.90
12720;DHT22;6424;48.520;11.228;2022-09-21T01:09:14;5.30;99.90
12720;DHT22;6424;48.520;11.228;2022-09-21T01:15:42;5.20;99.90
12720;DHT22;6424;48.520;11.228;2022-09-21T01:18:36;5.20;99.90
12720;DHT22;6424;48.520;11.228;2022-09-21T01:21:21;5.20;99.90
12720;DHT22;6424;48.520;11.228;2022-09-21T01:24:35;5.20;99.90
12720;DHT22;6424;48.520;11.228;2022-09-21T01:30:20;5.10;99.90
12720;DHT22;6424;48.520;11.228;2022-09-21T01:33:08;5.10;99.90
12720;DHT22;6424;48.520;11.228;2022-09-21T01:35:43;5.10;99.90
12720;DHT22;6424;48.520;11.228;2022-09-21T01:38:17;5.00;99.90
12720;DHT22;6424;48.520;11.228;2022-09-21T01:41:01;5.00;99.90
12720;DHT22;6424;48.520;11.228;2022-09-21T01:43:48;5.00;99.90
12720;DHT22;6424;48.520;11.228;2022-09-21T01:46:31;5.00;99.90
12720;DHT22;6424;48.520;11.228;2022-09-21T01:49:37;5.00;99.90
12720;DHT22;6424;48.520;11.228;2022-09-21T01:52:25;5.00;99.90
12720;DHT22;6424;48.520;11.228;2022-09-21T01:55:33;5.00;99.90
12720;DHT22;6424;48.520;11.228;2022-09-21T01:58:49;5.00;99.90
12720;DHT22;6424;48.520;11.228;2022-09-21T02:01:36;5.00;99.90
12720;DHT22;6424;48.520;11.228;2022-09-21T02:04:18;4.90;99.90
12720;DHT22;6424;48.520;11.228;2022-09-21T02:06:59;4.90;99.90
12720;DHT22;6424;48.520;11.228;2022-09-21T02:09:40;4.90;99.90
12720;DHT22;6424;48.520;11.228;2022-09-21T02:12:21;4.90;99.90
12720;DHT22;6424;48.520;11.228;2022-09-21T02:15:03;4.90;99.90
12720;DHT22;6424;48.520;11.228;2022-09-21T02:17:46;4.80;99.90
12720;DHT22;6424;48.520;11.228;2022-09-21T02:20:49;4.80;99.90
12720;DHT22;6424;48.520;11.228;2022-09-21T02:23:40;4.80;99.90
12720;DHT22;6424;48.520;11.228;2022-09-21T02:26:32;4.80;99.90
12720;DHT22;6424;48.520;11.228;2022-09-21T02:29:26;4.70;99.90
12720;DHT22;6424;48.520;11.228;2022-09-21T02:32:29;4.70;99.90
12720;DHT22;6424;48.520;11.228;2022-09-21T02:38:06;4.60;99.90
12720;DHT22;6424;48.520;11.228;2022-09-21T02:44:01;4.60;99.90
12720;DHT22;6424;48.520;11.228;2022-09-21T02:50:00;4.50;99.90
12720;DHT22;6424;48.520;11.228;2022-09-21T02:52:43;4.50;99.90
12720;DHT22;6424;48.520;11.228;2022-09-21T02:55:24;4.50;99.90
12720;DHT22;6424;48.520;11.228;2022-09-21T02:58:07;4.50;99.90
12720;DHT22;6424;48.520;11.228;2022-09-21T03:00:50;4.40;99.90
12720;DHT22;6424;48.520;11.228;2022-09-21T03:03:30;4.40;99.90
12720;DHT22;6424;48.520;11.228;2022-09-21T03:06:12;4.40;99.90
12720;DHT22;6424;48.520;11.228;2022-09-21T03:08:53;4.40;99.90
12720;DHT22;6424;48.520;11.228;2022-09-21T03:11:34;4.40;99.90
12720;DHT22;6424;48.520;11.228;2022-09-21T03:14:18;4.40;99.90
12720;DHT22;6424;48.520;11.228;2022-09-21T03:16:59;4.30;99.90
12720;DHT22;6424;48.520;11.228;2022-09-21T03:19:40;4.30;99.90
12720;DHT22;6424;48.520;11.228;2022-09-21T03:22:06;4.30;99.90
12720;DHT22;6424;48.520;11.228;2022-09-21T03:24:46;4.30;99.90
12720;DHT22;6424;48.520;11.228;2022-09-21T03:27:27;4.20;99.90
12720;DHT22;6424;48.520;11.228;2022-09-21T03:30:08;4.20;99.90
12720;DHT22;6424;48.520;11.228;2022-09-21T03:32:34;4.20;99.90
12720;DHT22;6424;48.520;11.228;2022-09-21T03:35:16;4.20;99.90
12720;DHT22;6424;48.520;11.228;2022-09-21T03:37:57;4.20;99.90
12720;DHT22;6424;48.520;11.228;2022-09-21T03:40:39;4.10;99.90
12720;DHT22;6424;48.520;11.228;2022-09-21T03:43:19;4.10;99.90
12720;DHT22;6424;48.520;11.228;2022-09-21T03:45:47;4.10;99.90
12720;DHT22;6424;48.520;11.228;2022-09-21T03:48:27;4.10;99.90
12720;DHT22;6424;48.520;11.228;2022-09-21T03:50:53;4.10;99.90
12720;DHT22;6424;48.520;11.228;2022-09-21T03:53:34;4.10;99.90
12720;DHT22;6424;48.520;11.228;2022-09-21T03:56:00;4.10;99.90
12720;DHT22;6424;48.520;11.228;2022-09-21T03:58:41;4.00;99.90
12720;DHT22;6424;48.520;11.228;2022-09-21T04:01:22;4.00;99.90
12720;DHT22;6424;48.520;11.228;2022-09-21T04:04:02;4.00;99.90
12720;DHT22;6424;48.520;11.228;2022-09-21T04:06:43;4.00;99.90
12720;DHT22;6424;48.520;11.228;2022-09-21T04:09:26;4.00;99.90
12720;DHT22;6424;48.520;11.228;2022-09-21T04:11:51;4.00;99.90
12720;DHT22;6424;48.520;11.228;2022-09-21T04:14:33;4.00;99.90
12720;DHT22;6424;48.520;11.228;2022-09-21T04:17:14;4.00;99.90
12720;DHT22;6424;48.520;11.228;2022-09-21T04:19:40;3.90;99.90
12720;DHT22;6424;48.520;11.228;2022-09-21T04:22:06;3.90;99.90
12720;DHT22;6424;48.520;11.228;2022-09-21T04:24:47;3.90;99.90
12720;DHT22;6424;48.520;11.228;2022-09-21T04:27:28;3.90;99.90
12720;DHT22;6424;48.520;11.228;2022-09-21T04:30:12;3.90;99.90
12720;DHT22;6424;48.520;11.228;2022-09-21T04:32:53;3.80;99.90
12720;DHT22;6424;48.520;11.228;2022-09-21T04:35:34;3.80;99.90
12720;DHT22;6424;48.520;11.228;2022-09-21T04:40:41;3.80;99.90
12720;DHT22;6424;48.520;11.228;2022-09-21T04:43:23;3.70;99.90
12720;DHT22;6424;48.520;11.228;2022-09-21T04:46:05;3.70;99.90
12720;DHT22;6424;48.520;11.228;2022-09-21T04:48:46;3.70;99.90
12720;DHT22;6424;48.520;11.228;2022-09-21T04:51:27;3.70;99.90
12720;DHT22;6424;48.520;11.228;2022-09-21T04:53:53;3.80;99.90
12720;DHT22;6424;48.520;11.228;2022-09-21T04:56:34;3.80;99.90
12720;DHT22;6424;48.520;11.228;2022-09-21T04:59:15;3.70;99.90
12720;DHT22;6424;48.520;11.228;2022-09-21T05:01:55;3.70;99.90
12720;DHT22;6424;48.520;11.228;2022-09-21T05:04:36;3.70;99.90
12720;DHT22;6424;48.520;11.228;2022-09-21T05:07:17;3.70;99.90
12720;DHT22;6424;48.520;11.228;2022-09-21T05:09:58;3.70;99.90
12720;DHT22;6424;48.520;11.228;2022-09-21T05:12:44;3.70;99.90
12720;DHT22;6424;48.520;11.228;2022-09-21T05:15:25;3.70;99.90
12720;DHT22;6424;48.520;11.228;2022-09-21T05:18:06;3.80;99.90
12720;DHT22;6424;48.520;11.228;2022-09-21T05:20:53;3.80;99.90
12720;DHT22;6424;48.520;11.228;2022-09-21T05:23:34;3.80;99.90
12720;DHT22;6424;48.520;11.228;2022-09-21T05:26:15;4.20;99.90
12720;DHT22;6424;48.520;11.228;2022-09-21T05:28:56;5.00;99.90
12720;DHT22;6424;48.520;11.228;2022-09-21T05:31:46;6.00;99.90
12720;DHT22;6424;48.520;11.228;2022-09-21T05:40:20;9.30;99.90
12720;DHT22;6424;48.520;11.228;2022-09-21T05:43:01;10.10;99.90
12720;DHT22;6424;48.520;11.228;2022-09-21T05:45:45;10.70;99.90
12720;DHT22;6424;48.520;11.228;2022-09-21T05:48:32;10.90;99.90
12720;DHT22;6424;48.520;11.228;2022-09-21T05:54:14;10.30;99.90
12720;DHT22;6424;48.520;11.228;2022-09-21T05:57:14;9.70;99.90
12720;DHT22;6424;48.520;11.228;2022-09-21T06:06:01;7.70;99.90
12720;DHT22;6424;48.520;11.228;2022-09-21T06:08:42;7.10;99.90
12720;DHT22;6424;48.520;11.228;2022-09-21T06:11:23;6.80;99.90
12720;DHT22;6424;48.520;11.228;2022-09-21T06:14:04;6.50;99.90
12720;DHT22;6424;48.520;11.228;2022-09-21T06:16:44;6.30;99.90
12720;DHT22;6424;48.520;11.228;2022-09-21T06:19:25;6.30;99.90
12720;DHT22;6424;48.520;11.228;2022-09-21T06:22:06;6.40;99.90
12720;DHT22;6424;48.520;11.228;2022-09-21T06:24:47;6.50;99.90
12720;DHT22;6424;48.520;11.228;2022-09-21T06:27:28;6.50;99.90
12720;DHT22;6424;48.520;11.228;2022-09-21T06:30:09;6.50;99.90
12720;DHT22;6424;48.520;11.228;2022-09-21T06:32:50;6.50;99.90
12720;DHT22;6424;48.520;11.228;2022-09-21T06:35:33;6.50;99.90
12720;DHT22;6424;48.520;11.228;2022-09-21T06:38:14;6.50;99.90
12720;DHT22;6424;48.520;11.228;2022-09-21T06:40:59;6.60;99.90
12720;DHT22;6424;48.520;11.228;2022-09-21T06:43:40;6.70;99.90
12720;DHT22;6424;48.520;11.228;2022-09-21T06:46:21;6.80;99.90
12720;DHT22;6424;48.520;11.228;2022-09-21T06:48:47;6.90;99.90
12720;DHT22;6424;48.520;11.228;2022-09-21T06:51:28;6.90;99.90
12720;DHT22;6424;48.520;11.228;2022-09-21T06:54:08;6.90;99.90
12720;DHT22;6424;48.520;11.228;2022-09-21T06:56:49;7.00;99.90
12720;DHT22;6424;48.520;11.228;2022-09-21T06:59:30;7.10;99.90
12720;DHT22;6424;48.520;11.228;2022-09-21T07:02:11;7.30;99.90
12720;DHT22;6424;48.520;11.228;2022-09-21T07:04:52;7.50;99.90
12720;DHT22;6424;48.520;11.228;2022-09-21T07:07:19;7.70;99.90
12720;DHT22;6424;48.520;11.228;2022-09-21T07:09:59;7.80;99.90
12720;DHT22;6424;48.520;11.228;2022-09-21T07:12:41;8.10;99.90
12720;DHT22;6424;48.520;11.228;2022-09-21T07:15:08;8.40;99.90
12720;DHT22;6424;48.520;11.228;2022-09-21T07:17:49;8.70;99.90
12720;DHT22;6424;48.520;11.228;2022-09-21T07:20:31;9.00;99.90
12720;DHT22;6424;48.520;11.228;2022-09-21T07:23:13;9.30;99.90
12720;DHT22;6424;48.520;11.228;2022-09-21T07:25:54;9.50;99.90
12720;DHT22;6424;48.520;11.228;2022-09-21T07:28:36;9.60;99.90
12720;DHT22;6424;48.520;11.228;2022-09-21T07:31:16;9.60;99.90
12720;DHT22;6424;48.520;11.228;2022-09-21T07:33:57;9.30;99.90
12720;DHT22;6424;48.520;11.228;2022-09-21T07:36:38;9.10;99.90
12720;DHT22;6424;48.520;11.228;2022-09-21T07:39:19;8.70;99.90
12720;DHT22;6424;48.520;11.228;2022-09-21T07:42:00;8.40;99.90
12720;DHT22;6424;48.520;11.228;2022-09-21T07:44:26;8.20;99.90
12720;DHT22;6424;48.520;11.228;2022-09-21T07:47:07;8.00;99.90
12720;DHT22;6424;48.520;11.228;2022-09-21T07:49:48;7.90;99.90
12720;DHT22;6424;48.520;11.228;2022-09-21T07:52:29;7.70;99.90
12720;DHT22;6424;48.520;11.228;2022-09-21T07:55:10;7.70;99.90
12720;DHT22;6424;48.520;11.228;2022-09-21T07:57:35;7.90;99.90
12720;DHT22;6424;48.520;11.228;2022-09-21T08:00:35;8.10;99.90
12720;DHT22;6424;48.520;11.228;2022-09-21T08:03:16;8.30;99.90
12720;DHT22;6424;48.520;11.228;2022-09-21T08:06:00;8.50;99.90
12720;DHT22;6424;48.520;11.228;2022-09-21T08:08:41;8.80;99.90
12720;DHT22;6424;48.520;11.228;2022-09-21T08:11:07;9.10;99.90
12720;DHT22;6424;48.520;11.228;2022-09-21T08:13:52;9.30;99.90
12720;DHT22;6424;48.520;11.228;2022-09-21T08:16:33;9.50;99.90
12720;DHT22;6424;48.520;11.228;2022-09-21T08:19:14;9.50;99.90
12720;DHT22;6424;48.520;11.228;2022-09-21T08:21:56;9.70;99.90
12720;DHT22;6424;48.520;11.228;2022-09-21T08:24:37;9.80;99.90
12720;DHT22;6424;48.520;11.228;2022-09-21T08:27:20;9.90;99.90
12720;DHT22;6424;48.520;11.228;2022-09-21T08:30:02;9.90;99.90
12720;DHT22;6424;48.520;11.228;2022-09-21T08:32:28;9.90;99.90
12720;DHT22;6424;48.520;11.228;2022-09-21T08:35:10;9.90;99.90
12720;DHT22;6424;48.520;11.228;2022-09-21T08:37:36;9.80;99.90
12720;DHT22;6424;48.520;11.228;2022-09-21T08:40:04;10.00;99.90
12720;DHT22;6424;48.520;11.228;2022-09-21T08:42:56;10.20;99.90
12720;DHT22;6424;48.520;11.228;2022-09-21T08:45:41;10.30;99.90
12720;DHT22;6424;48.520;11.228;2022-09-21T08:48:25;10.40;99.90
12720;DHT22;6424;48.520;11.228;2022-09-21T08:51:11;10.40;99.90
12720;DHT22;6424;48.520;11.228;2022-09-21T08:57:17;10.40;99.90
12720;DHT22;6424;48.520;11.228;2022-09-21T09:00:00;10.60;99.90
12720;DHT22;6424;48.520;11.228;2022-09-21T09:15:31;11.70;99.90
12720;DHT22;6424;48.520;11.228;2022-09-21T09:18:17;12.00;99.90
12720;DHT22;6424;48.520;11.228;2022-09-21T09:21:15;12.20;99.90
12720;DHT22;6424;48.520;11.228;2022-09-21T09:24:09;12.20;99.90
12720;DHT22;6424;48.520;11.228;2022-09-21T09:26:46;12.40;99.90
12720;DHT22;6424;48.520;11.228;2022-09-21T09:32:50;12.90;99.90
12720;DHT22;6424;48.520;11.228;2022-09-21T09:35:37;13.10;99.90
12720;DHT22;6424;48.520;11.228;2022-09-21T09:38:47;13.30;99.90
12720;DHT22;6424;48.520;11.228;2022-09-21T09:50:29;12.70;99.90
12720;DHT22;6424;48.520;11.228;2022-09-21T09:53:24;12.70;99.90
12720;DHT22;6424;48.520;11.228;2022-09-21T09:56:08;12.80;99.90
12720;DHT22;6424;48.520;11.228;2022-09-21T09:58:59;12.90;99.90
12720;DHT22;6424;48.520;11.228;2022-09-21T10:01:43;13.00;99.90
12720;DHT22;6424;48.520;11.228;2022-09-21T10:04:25;13.20;99.90
12720;DHT22;6424;48.520;11.228;2022-09-21T10:07:17;13.30;99.90
12720;DHT22;6424;48.520;11.228;2022-09-21T10:09:58;13.50;99.90
12720;DHT22;6424;48.520;11.228;2022-09-21T10:12:38;13.80;99.90
12720;DHT22;6424;48.520;11.228;2022-09-21T10:15:23;14.00;99.90
12720;DHT22;6424;48.520;11.228;2022-09-21T10:18:11;14.20;99.90
12720;DHT22;6424;48.520;11.228;2022-09-21T10:21:06;14.40;99.90
12720;DHT22;6424;48.520;11.228;2022-09-21T10:23:55;14.50;99.90
12720;DHT22;6424;48.520;11.228;2022-09-21T10:26:46;14.50;99.90
12720;DHT22;6424;48.520;11.228;2022-09-21T10:29:38;14.80;99.90
12720;DHT22;6424;48.520;11.228;2022-09-21T10:32:23;14.90;99.90
12720;DHT22;6424;48.520;11.228;2022-09-21T10:42:58;14.70;99.90
12720;DHT22;6424;48.520;11.228;2022-09-21T10:45:26;14.50;99.90
12720;DHT22;6424;48.520;11.228;2022-09-21T10:48:15;14.30;99.90
12720;DHT22;6424;48.520;11.228;2022-09-21T10:50:58;14.00;99.90
12720;DHT22;6424;48.520;11.228;2022-09-21T10:53:39;14.00;99.90
12720;DHT22;6424;48.520;11.228;2022-09-21T10:56:27;14.20;99.90
12720;DHT22;6424;48.520;11.228;2022-09-21T10:59:23;14.40;99.90
12720;DHT22;6424;48.520;11.228;2022-09-21T11:05:14;14.40;99.90
12720;DHT22;6424;48.520;11.228;2022-09-21T11:08:17;14.40;99.90
12720;DHT22;6424;48.520;11.228;2022-09-21T11:11:24;14.40;99.90
12720;DHT22;6424;48.520;11.228;2022-09-21T11:14:10;14.60;99.90
12720;DHT22;6424;48.520;11.228;2022-09-21T11:17:00;14.80;99.90
12720;DHT22;6424;48.520;11.228;2022-09-21T11:19:46;15.00;99.90
12720;DHT22;6424;48.520;11.228;2022-09-21T11:22:44;14.90;99.90
12720;DHT22;6424;48.520;11.228;2022-09-21T11:28:32;14.90;99.90
12720;DHT22;6424;48.520;11.228;2022-09-21T11:46:26;15.00;99.00
12720;DHT22;6424;48.520;11.228;2022-09-21T11:52:29;15.00;99.30
12720;DHT22;6424;48.520;11.228;2022-09-21T11:55:38;15.20;99.60
12720;DHT22;6424;48.520;11.228;2022-09-21T12:01:41;14.90;97.00
12720;DHT22;6424;48.520;11.228;2022-09-21T12:13:34;14.60;97.40
12720;DHT22;6424;48.520;11.228;2022-09-21T12:16:50;14.40;97.80
12720;DHT22;6424;48.520;11.228;2022-09-21T12:22:31;14.30;96.90
12720;DHT22;6424;48.520;11.228;2022-09-21T12:25:20;14.50;95.80
12720;DHT22;6424;48.520;11.228;2022-09-21T12:30:59;14.90;94.80
12720;DHT22;6424;48.520;11.228;2022-09-21T12:33:40;15.00;95.30
12720;DHT22;6424;48.520;11.228;2022-09-21T12:36:38;14.90;96.20
12720;DHT22;6424;48.520;11.228;2022-09-21T12:39:31;14.70;95.50
12720;DHT22;6424;48.520;11.228;2022-09-21T12:42:39;14.50;94.00
12720;DHT22;6424;48.520;11.228;2022-09-21T12:45:29;14.30;94.20
12720;DHT22;6424;48.520;11.228;2022-09-21T12:51:29;14.00;96.20
12720;DHT22;6424;48.520;11.228;2022-09-21T12:59:49;14.10;96.70
12720;DHT22;6424;48.520;11.228;2022-09-21T13:03:24;14.00;96.20
12720;DHT22;6424;48.520;11.228;2022-09-21T13:08:46;14.40;96.30
12720;DHT22;6424;48.520;11.228;2022-09-21T13:11:27;14.70;94.60
12720;DHT22;6424;48.520;11.228;2022-09-21T13:14:11;14.80;94.00
12720;DHT22;6424;48.520;11.228;2022-09-21T13:16:55;14.90;94.90
12720;DHT22;6424;48.520;11.228;2022-09-21T13:19:37;14.90;93.70
12720;DHT22;6424;48.520;11.228;2022-09-21T13:25:06;14.90;92.60
12720;DHT22;6424;48.520;11.228;2022-09-21T13:48:12;14.60;93.60
12720;DHT22;6424;48.520;11.228;2022-09-21T13:50:59;14.70;92.70
12720;DHT22;6424;48.520;11.228;2022-09-21T13:53:41;14.70;93.40
12720;DHT22;6424;48.520;11.228;2022-09-21T13:56:24;14.80;94.90
12720;DHT22;6424;48.520;11.228;2022-09-21T13:59:14;14.90;93.40
12720;DHT22;6424;48.520;11.228;2022-09-21T14:01:58;14.90;93.10
12720;DHT22;6424;48.520;11.228;2022-09-21T14:04:39;14.90;91.10
12720;DHT22;6424;48.520;11.228;2022-09-21T14:07:20;14.80;90.40
12720;DHT22;6424;48.520;11.228;2022-09-21T14:10:08;14.80;89.80
12720;DHT22;6424;48.520;11.228;2022-09-21T14:12:49;14.80;90.30
12720;DHT22;6424;48.520;11.228;2022-09-21T14:15:36;14.90;92.20
12720;DHT22;6424;48.520;11.228;2022-09-21T14:27:39;14.30;92.80
12720;DHT22;6424;48.520;11.228;2022-09-21T14:30:24;14.20;93.30
12720;DHT22;6424;48.520;11.228;2022-09-21T14:33:24;14.00;93.80
12720;DHT22;6424;48.520;11.228;2022-09-21T14:36:08;13.80;94.50
12720;DHT22;6424;48.520;11.228;2022-09-21T14:38:57;13.60;94.90
12720;DHT22;6424;48.520;11.228;2022-09-21T14:41:41;13.50;95.00
12720;DHT22;6424;48.520;11.228;2022-09-21T14:44:28;13.50;95.20
12720;DHT22;6424;48.520;11.228;2022-09-21T14:47:55;13.40;95.40
12720;DHT22;6424;48.520;11.228;2022-09-21T14:50:34;13.50;94.90
12720;DHT22;6424;48.520;11.228;2022-09-21T15:02:37;14.20;93.10
12720;DHT22;6424;48.520;11.228;2022-09-21T15:05:42;14.40;91.60
12720;DHT22;6424;48.520;11.228;2022-09-21T15:08:46;14.50;91.70
12720;DHT22;6424;48.520;11.228;2022-09-21T15:11:58;14.50;88.90
12720;DHT22;6424;48.520;11.228;2022-09-21T15:14:45;14.40;91.40
12720;DHT22;6424;48.520;11.228;2022-09-21T15:17:28;14.30;92.20
12720;DHT22;6424;48.520;11.228;2022-09-21T15:20:16;14.20;93.30
12720;DHT22;6424;48.520;11.228;2022-09-21T15:22:59;14.10;93.10
12720;DHT22;6424;48.520;11.228;2022-09-21T15:25:40;14.10;93.90
12720;DHT22;6424;48.520;11.228;2022-09-21T15:28:20;14.00;93.60
12720;DHT22;6424;48.520;11.228;2022-09-21T15:31:02;13.90;93.40
12720;DHT22;6424;48.520;11.228;2022-09-21T15:33:45;13.90;92.80
12720;DHT22;6424;48.520;11.228;2022-09-21T15:36:29;13.90;93.00
12720;DHT22;6424;48.520;11.228;2022-09-21T15:44:35;13.90;91.80
12720;DHT22;6424;48.520;11.228;2022-09-21T15:47:21;13.90;91.50
12720;DHT22;6424;48.520;11.228;2022-09-21T15:50:03;13.90;91.20
12720;DHT22;6424;48.520;11.228;2022-09-21T15:52:52;13.90;92.30
12720;DHT22;6424;48.520;11.228;2022-09-21T15:55:35;13.90;91.40
12720;DHT22;6424;48.520;11.228;2022-09-21T15:58:43;13.90;91.80
12720;DHT22;6424;48.520;11.228;2022-09-21T16:01:29;13.90;92.20
12720;DHT22;6424;48.520;11.228;2022-09-21T16:04:17;13.90;92.90
12720;DHT22;6424;48.520;11.228;2022-09-21T16:09:45;13.80;90.60
12720;DHT22;6424;48.520;11.228;2022-09-21T16:12:36;13.70;90.60
12720;DHT22;6424;48.520;11.228;2022-09-21T16:15:24;13.70;90.50
12720;DHT22;6424;48.520;11.228;2022-09-21T16:17:58;13.60;90.90
12720;DHT22;6424;48.520;11.228;2022-09-21T16:20:44;13.60;91.50
12720;DHT22;6424;48.520;11.228;2022-09-21T16:23:29;13.50;92.10
12720;DHT22;6424;48.520;11.228;2022-09-21T16:26:18;13.50;93.00
12720;DHT22;6424;48.520;11.228;2022-09-21T16:29:19;13.40;93.00
12720;DHT22;6424;48.520;11.228;2022-09-21T16:35:23;13.20;93.80
12720;DHT22;6424;48.520;11.228;2022-09-21T16:38:07;13.20;94.00
12720;DHT22;6424;48.520;11.228;2022-09-21T16:40:54;13.10;94.60
12720;DHT22;6424;48.520;11.228;2022-09-21T16:43:21;13.00;94.90
12720;DHT22;6424;48.520;11.228;2022-09-21T16:46:03;13.00;95.30
12720;DHT22;6424;48.520;11.228;2022-09-21T16:48:46;12.90;95.70
12720;DHT22;6424;48.520;11.228;2022-09-21T16:51:28;12.80;96.00
12720;DHT22;6424;48.520;11.228;2022-09-21T16:54:09;12.70;96.40
12720;DHT22;6424;48.520;11.228;2022-09-21T16:56:51;12.60;96.40
12720;DHT22;6424;48.520;11.228;2022-09-21T16:59:32;12.50;96.60
12720;DHT22;6424;48.520;11.228;2022-09-21T17:02:16;12.50;97.00
12720;DHT22;6424;48.520;11.228;2022-09-21T17:04:57;12.40;97.50
12720;DHT22;6424;48.520;11.228;2022-09-21T17:07:38;12.30;98.00
12720;DHT22;6424;48.520;11.228;2022-09-21T17:10:25;12.20;98.90
12720;DHT22;6424;48.520;11.228;2022-09-21T17:13:09;12.10;99.60
12720;DHT22;6424;48.520;11.228;2022-09-21T17:15:50;12.00;99.90
12720;DHT22;6424;48.520;11.228;2022-09-21T17:18:16;11.90;99.90
12720;DHT22;6424;48.520;11.228;2022-09-21T17:20:57;11.80;99.90
12720;DHT22;6424;48.520;11.228;2022-09-21T17:23:39;11.70;99.90
12720;DHT22;6424;48.520;11.228;2022-09-21T17:26:20;11.60;99.90
12720;DHT22;6424;48.520;11.228;2022-09-21T17:29:13;11.60;99.90
12720;DHT22;6424;48.520;11.228;2022-09-21T17:31:56;11.50;99.90
12720;DHT22;6424;48.520;11.228;2022-09-21T17:34:37;11.40;99.90
12720;DHT22;6424;48.520;11.228;2022-09-21T17:37:18;11.20;99.90
12720;DHT22;6424;48.520;11.228;2022-09-21T17:39:59;11.10;99.90
12720;DHT22;6424;48.520;11.228;2022-09-21T17:42:42;11.00;99.90
12720;DHT22;6424;48.520;11.228;2022-09-21T17:45:33;10.90;99.90
12720;DHT22;6424;48.520;11.228;2022-09-21T17:48:19;10.70;99.90
12720;DHT22;6424;48.520;11.228;2022-09-21T17:51:00;10.60;99.90
12720;DHT22;6424;48.520;11.228;2022-09-21T17:53:41;10.50;99.90
12720;DHT22;6424;48.520;11.228;2022-09-21T17:59:30;10.30;99.90
12720;DHT22;6424;48.520;11.228;2022-09-21T18:02:22;10.30;99.90
12720;DHT22;6424;48.520;11.228;2022-09-21T18:05:20;10.20;99.90
12720;DHT22;6424;48.520;11.228;2022-09-21T18:07:49;10.10;99.90
12720;DHT22;6424;48.520;11.228;2022-09-21T18:10:30;10.10;99.90
12720;DHT22;6424;48.520;11.228;2022-09-21T18:13:21;10.10;99.90
12720;DHT22;6424;48.520;11.228;2022-09-21T18:16:26;10.10;99.90
12720;DHT22;6424;48.520;11.228;2022-09-21T18:25:35;10.00;99.90
12720;DHT22;6424;48.520;11.228;2022-09-21T18:28:44;9.90;99.90
12720;DHT22;6424;48.520;11.228;2022-09-21T18:31:31;9.90;99.90
12720;DHT22;6424;48.520;11.228;2022-09-21T18:46:38;9.50;99.90
12720;DHT22;6424;48.520;11.228;2022-09-21T18:53:40;9.40;99.90
12720;DHT22;6424;48.520;11.228;2022-09-21T18:55:38;9.40;99.90
12720;DHT22;6424;48.520;11.228;2022-09-21T18:58:19;9.40;99.90
12720;DHT22;6424;48.520;11.228;2022-09-21T19:00:59;9.40;99.90
12720;DHT22;6424;48.520;11.228;2022-09-21T19:03:41;9.40;99.90
12720;DHT22;6424;48.520;11.228;2022-09-21T19:09:41;9.30;99.90
12720;DHT22;6424;48.520;11.228;2022-09-21T19:15:39;9.30;99.90
12720;DHT22;6424;48.520;11.228;2022-09-21T19:27:16;9.00;99.90
12720;DHT22;6424;48.520;11.228;2022-09-21T19:29:54;9.00;99.90
12720;DHT22;6424;48.520;11.228;2022-09-21T19:32:44;8.90;99.90
12720;DHT22;6424;48.520;11.228;2022-09-21T19:35:17;8.90;99.90
12720;DHT22;6424;48.520;11.228;2022-09-21T19:37:44;9.00;99.90
12720;DHT22;6424;48.520;11.228;2022-09-21T19:40:32;9.00;99.90
12720;DHT22;6424;48.520;11.228;2022-09-21T19:43:30;8.90;99.90
12720;DHT22;6424;48.520;11.228;2022-09-21T19:49:16;8.90;99.90
12720;DHT22;6424;48.520;11.228;2022-09-21T19:52:03;8.90;99.90
12720;DHT22;6424;48.520;11.228;2022-09-21T19:54:45;8.90;99.90
12720;DHT22;6424;48.520;11.228;2022-09-21T19:57:44;8.90;99.90
12720;DHT22;6424;48.520;11.228;2022-09-21T20:00:47;8.90;99.90
12720;DHT22;6424;48.520;11.228;2022-09-21T20:03:39;8.90;99.90
12720;DHT22;6424;48.520;11.228;2022-09-21T20:07:01;8.90;99.90
12720;DHT22;6424;48.520;11.228;2022-09-21T20:09:40;8.90;99.90
12720;DHT22;6424;48.520;11.228;2022-09-21T20:12:33;8.90;99.90
12720;DHT22;6424;48.520;11.228;2022-09-21T20:15:20;8.90;99.90
12720;DHT22;6424;48.520;11.228;2022-09-21T20:18:48;8.80;99.90
12720;DHT22;6424;48.520;11.228;2022-09-21T20:27:49;8.70;99.90
12720;DHT22;6424;48.520;11.228;2022-09-21T20:30:33;8.60;99.90
12720;DHT22;6424;48.520;11.228;2022-09-21T20:33:16;8.60;99.90
12720;DHT22;6424;48.520;11.228;2022-09-21T20:36:01;8.60;99.90
12720;DHT22;6424;48.520;11.228;2022-09-21T20:38:42;8.60;99.90
12720;DHT22;6424;48.520;11.228;2022-09-21T20:41:10;8.60;99.90
12720;DHT22;6424;48.520;11.228;2022-09-21T20:43:51;8.60;99.90
12720;DHT22;6424;48.520;11.228;2022-09-21T20:46:32;8.60;99.90
12720;DHT22;6424;48.520;11.228;2022-09-21T20:49:13;8.60;99.90
12720;DHT22;6424;48.520;11.228;2022-09-21T20:51:54;8.50;99.90
12720;DHT22;6424;48.520;11.228;2022-09-21T20:54:36;8.50;99.90
12720;DHT22;6424;48.520;11.228;2022-09-21T20:57:17;8.50;99.90
12720;DHT22;6424;48.520;11.228;2022-09-21T20:59:59;8.50;99.90
12720;DHT22;6424;48.520;11.228;2022-09-21T21:02:40;8.60;99.90
12720;DHT22;6424;48.520;11.228;2022-09-21T21:05:21;8.60;99.90
12720;DHT22;6424;48.520;11.228;2022-09-21T21:07:47;8.60;99.90
12720;DHT22;6424;48.520;11.228;2022-09-21T21:10:28;8.60;99.90
12720;DHT22;6424;48.520;11.228;2022-09-21T21:13:08;8.60;99.90
12720;DHT22;6424;48.520;11.228;2022-09-21T21:15:52;8.60;99.90
12720;DHT22;6424;48.520;11.228;2022-09-21T21:18:33;8.60;99.90